Yakutat Airport
PAYA : now visible

Airfield :











YOU CAN JOIN US ON...

 
LOGIN :

Register | Disclaimer

   EN    FR    IT 

 









Legend :    VFR   Marginal VFR   IFR   Intensive IFR   Very Intensive IFR
Visi :
Ceiling :
>= 8 km
>= 3000ft
5 to 8 km
1000 to 3000 ft
1500m to 5 km
500 to 1000 ft
800 to 1500m
200 to 500 ft
< 800m
< 200 ft
Symbols :   Thunderstorms  Fog  Heavy snow  Heavy precipitations  Wind > 20 kt






- Airport Elevation : 33 ft


PAYA - Yakutat

CURRENT METAR :
  • 240602Z AUTO 09004KT 10SM SCT006 OVC090 M03/M03 A3001 RMK AO2 T10281033 TSNO $

EXPIRED METARs :
  • 240553Z AUTO 09004KT 10SM BKN006 BKN070 OVC090 M03/M03 A3001 RMK AO2 SNE25 SLP163 P0002 60009 T10281028 11011 21033 51020 TSNO $
  • 240542Z AUTO 10004KT 10SM SCT008 BKN070 OVC085 M03/M03 A3001 RMK AO2 SNE25 P0002 T10281028 TSNO $
  • 240513Z AUTO 00000KT 3SM -SN BR BKN033 OVC070 M02/M02 A2999 RMK AO2 P0002 T10171022 TSNO $
  • 240505Z AUTO 01003KT 1/2SM SN FZFG VV020 M02/M02 A2999 RMK AO2 P0002 T10171022 TSNO RVRNO $
  • 240457Z AUTO 00000KT 1SM -SN BR VV016 M02/M02 A2999 RMK AO2 P0000 T10171022 TSNO RVRNO $
  • 240444Z AUTO 00000KT 1 1/2SM -SN BR FEW016 OVC024 M02/M02 A2998 RMK AO2 P0001 T10171022 TSNO $
  • 240430Z AUTO 00000KT 1 3/4SM -SN BR SCT018 OVC025 M02/M02 A2997 RMK AO2 P0001 T10171022 TSNO $
  • 240413Z AUTO 00000KT 3SM -SN BR OVC025 M01/M02 A2996 RMK AO2 P0001 T10111022 TSNO $
  • 240402Z AUTO 00000KT 1 1/2SM -SN BR OVC015 M01/M02 A2996 RMK AO2 P0000 T10111022 TSNO $
  • 240330Z AUTO 21009KT 1/4SM SN FZFG VV008 M02/M02 A2994 RMK AO2 SNB10 P0003 T10171022 TSNO RVRNO $

TAF PAYA
Valid from the 24 at 06:00 until the 25 at 06:00 UTC


240520Z 2406/2506 VRB03KT 4SM -SHSN BKN035 OVC050
TEMPO 2406/2408 2SM -SHSN BKN015 OVC025
FM240800 VRB04KT P6SM BKN035 OVC050 AMD LTD TO CLD VIS AND WIND



MET'MAP, your aeronautical weather chart ! - Copyright ORBIFLY December 2007 - Disclaimer

ORBIFLY MET'MAP TEAM :

Programming & Development : Alexandra Zaïnal
Concept & original design : Baudouin d'Aumeries
Assistance for programming : Marc-Olivier Méhu
Technical & hardware support : Manuel Goepfert

Contact : metmap@orbifly.com




SOURCES & CREDITS :

   NOAA       Earth
Advisory